Time;durP1;ratioP1;P1;durP2;ratioP2;P2;SDS_P1;SDS_P2;PMS_P1;PMS_P2;Temp;Humidity;BMP_temperature;BMP_pressure;BME280_temperature;BME280_humidity;BME280_pressure;Samples;Min_cycle;Max_cycle;Signal;HPM_P1;HPM_P2
2023/04/04 00:01:24;;;;;;;4.13;2.00;;;-1.50;1.00;;;;;;4898348;29;20254;-89
2023/04/04 00:03:51;;;;;;;5.20;2.13;;;-1.30;1.00;;;;;;4898049;29;20250;-89
2023/04/04 00:06:18;;;;;;;4.83;2.13;;;-1.60;1.00;;;;;;4898124;29;20206;-88
2023/04/04 00:08:45;;;;;;;5.73;2.20;;;-1.60;1.00;;;;;;4899252;29;20224;-88
2023/04/04 00:11:13;;;;;;;4.80;2.43;;;-1.60;1.00;;;;;;4901382;29;20225;-89
2023/04/04 00:13:41;;;;;;;6.67;2.77;;;-1.60;1.00;;;;;;4901923;29;20202;-89
2023/04/04 00:16:08;;;;;;;6.93;2.40;;;-1.60;1.00;;;;;;4901241;29;20231;-88
2023/04/04 00:18:36;;;;;;;4.37;2.10;;;-1.60;1.00;;;;;;4901323;29;20222;-88
2023/04/04 00:21:03;;;;;;;7.43;3.20;;;-1.60;1.00;;;;;;4912584;29;20569;-90
2023/04/04 00:23:30;;;;;;;4.90;3.00;;;-1.50;1.00;;;;;;4920351;29;20201;-89
2023/04/04 00:25:57;;;;;;;8.70;4.50;;;-1.60;1.00;;;;;;4920334;29;20201;-88
2023/04/04 00:28:25;;;;;;;9.30;3.67;;;-1.50;1.00;;;;;;4920291;29;20269;-90
2023/04/04 00:30:52;;;;;;;9.47;3.30;;;-1.50;1.00;;;;;;4910486;29;20226;-88
2023/04/04 00:33:19;;;;;;;5.73;2.73;;;-1.40;1.00;;;;;;4901442;29;20257;-89
2023/04/04 00:35:47;;;;;;;5.93;2.70;;;-1.30;1.00;;;;;;4901603;29;20206;-89
2023/04/04 00:38:14;;;;;;;5.60;2.13;;;-1.30;1.00;;;;;;4900888;29;20272;-89
2023/04/04 00:40:43;;;;;;;9.03;2.57;;;-1.20;1.00;;;;;;4901395;29;20262;-88
2023/04/04 00:43:11;;;;;;;4.67;2.23;;;-1.20;1.00;;;;;;4901026;29;20202;-88
2023/04/04 00:45:40;;;;;;;6.10;2.30;;;-1.10;1.00;;;;;;4901137;29;20202;-88
2023/04/04 00:48:07;;;;;;;7.73;2.63;;;-1.10;1.00;;;;;;4901061;29;20198;-88
2023/04/04 00:50:34;;;;;;;4.30;2.53;;;-1.00;1.00;;;;;;4907443;29;20225;-89
2023/04/04 00:53:01;;;;;;;5.53;2.43;;;-1.00;1.00;;;;;;4919058;29;20201;-89
2023/04/04 00:55:28;;;;;;;5.77;2.70;;;-0.90;1.00;;;;;;4901030;29;20798;-89
2023/04/04 00:57:55;;;;;;;6.63;2.80;;;-0.90;1.00;;;;;;4900796;29;20201;-89
2023/04/04 01:00:22;;;;;;;6.70;2.17;;;-0.90;1.00;;;;;;4900393;29;20198;-89
2023/04/04 01:02:51;;;;;;;6.40;2.93;;;-0.90;1.00;;;;;;4900492;29;20254;-88
2023/04/04 01:05:18;;;;;;;7.10;2.80;;;-0.90;1.00;;;;;;4900702;29;20210;-89
2023/04/04 01:07:45;;;;;;;6.20;2.60;;;-0.90;1.00;;;;;;4901144;29;20194;-87
2023/04/04 01:10:12;;;;;;;5.53;2.03;;;-0.90;1.00;;;;;;4883137;29;20223;-89
2023/04/04 01:12:41;;;;;;;5.77;1.93;;;-0.90;1.00;;;;;;4900702;29;20288;-88
2023/04/04 01:15:09;;;;;;;6.30;2.40;;;-0.90;1.00;;;;;;4900192;29;20198;-89
2023/04/04 01:17:36;;;;;;;3.57;1.67;;;-0.90;1.00;;;;;;4900261;29;20205;-89
2023/04/04 01:20:07;;;;;;;6.07;2.20;;;-0.90;1.00;;;;;;4899930;29;20787;-88
2023/04/04 01:22:36;;;;;;;5.90;2.30;;;-0.90;1.00;;;;;;4900298;29;20249;-89
2023/04/04 01:25:05;;;;;;;6.33;2.67;;;-0.90;1.00;;;;;;4900694;29;20595;-89
2023/04/04 01:27:34;;;;;;;8.60;2.77;;;-0.80;1.00;;;;;;4899888;29;20202;-88
2023/04/04 01:30:01;;;;;;;6.50;2.80;;;-0.70;1.00;;;;;;4902989;29;20218;-88
2023/04/04 01:32:36;;;;;;;6.60;3.57;;;-0.70;1.00;;;;;;4899844;29;20236;-88
2023/04/04 01:35:20;;;;;;;5.23;2.87;;;-0.60;1.00;;;;;;4900057;29;20266;-87
2023/04/04 01:37:55;;;;;;;6.00;2.90;;;-0.60;1.00;;;;;;4882846;29;20248;-89
2023/04/04 01:40:27;;;;;;;5.13;2.90;;;-0.50;1.00;;;;;;4892542;29;20201;-88
2023/04/04 01:42:56;;;;;;;7.97;2.93;;;-0.50;1.00;;;;;;4900364;29;20198;-89
2023/04/04 01:45:24;;;;;;;7.73;2.53;;;-0.50;1.00;;;;;;4900263;29;20202;-89
2023/04/04 01:47:51;;;;;;;6.40;2.67;;;-0.60;1.00;;;;;;4899752;29;20198;-89
2023/04/04 01:50:18;;;;;;;10.70;3.30;;;-0.60;1.00;;;;;;4900074;29;20646;-89
2023/04/04 01:52:45;;;;;;;7.23;2.67;;;-0.60;1.00;;;;;;4900207;29;20197;-89
2023/04/04 01:55:12;;;;;;;5.90;2.90;;;-0.70;1.00;;;;;;4915845;29;20226;-89
2023/04/04 01:57:40;;;;;;;6.80;2.83;;;-0.70;1.00;;;;;;4899906;29;20234;-89
2023/04/04 02:00:09;;;;;;;9.07;3.30;;;-0.70;1.00;;;;;;4901357;29;20678;-89
2023/04/04 02:02:37;;;;;;;6.20;3.07;;;-0.80;1.00;;;;;;4900154;29;20554;-89
2023/04/04 02:05:04;;;;;;;7.07;3.03;;;-0.80;1.00;;;;;;4899650;29;20209;-89
2023/04/04 02:07:31;;;;;;;6.00;2.60;;;-0.80;1.00;;;;;;4899404;29;20205;-89
2023/04/04 02:09:58;;;;;;;6.43;2.60;;;-0.90;15.10;;;;;;4917319;29;20221;-88
2023/04/04 02:12:25;;;;;;;6.00;3.10;;;-0.90;27.10;;;;;;4918126;29;20205;-89
2023/04/04 02:14:52;;;;;;;7.37;2.70;;;-1.00;63.20;;;;;;4910986;29;20253;-90
2023/04/04 02:17:20;;;;;;;6.80;2.90;;;-1.00;55.20;;;;;;4899668;29;20210;-87
2023/04/04 02:19:48;;;;;;;6.33;3.10;;;-1.00;74.50;;;;;;4899786;29;20202;-89
2023/04/04 02:22:15;;;;;;;7.80;2.90;;;-1.10;90.10;;;;;;4899297;29;20229;-89
2023/04/04 02:24:42;;;;;;;6.70;2.50;;;-1.10;90.80;;;;;;4899231;29;20202;-89
2023/04/04 02:27:09;;;;;;;7.77;2.67;;;-1.20;78.20;;;;;;4899353;29;20234;-89
2023/04/04 02:29:36;;;;;;;6.87;3.10;;;-1.20;84.20;;;;;;4898897;29;20197;-88
2023/04/04 02:32:03;;;;;;;6.03;2.97;;;-1.30;67.70;;;;;;4898599;29;20229;-89
2023/04/04 02:34:31;;;;;;;7.77;2.80;;;-1.30;99.90;;;;;;4899365;29;20202;-89
2023/04/04 02:36:58;;;;;;;6.07;2.83;;;-1.40;99.90;;;;;;4899035;29;20191;-88
2023/04/04 02:39:25;;;;;;;6.43;2.97;;;-1.40;99.90;;;;;;4898935;29;20659;-89
2023/04/04 02:41:52;;;;;;;5.20;2.90;;;-1.40;99.90;;;;;;4898803;29;20235;-89
2023/04/04 02:44:19;;;;;;;7.27;3.13;;;-1.40;99.90;;;;;;4898802;29;20198;-89
2023/04/04 02:46:47;;;;;;;7.00;2.87;;;-1.50;99.90;;;;;;4899209;29;20198;-88
2023/04/04 02:49:14;;;;;;;8.17;3.47;;;-1.50;99.90;;;;;;4899147;29;20205;-89
2023/04/04 02:51:42;;;;;;;7.50;3.03;;;-1.50;99.90;;;;;;4898861;29;20296;-89
2023/04/04 02:54:10;;;;;;;10.40;3.07;;;-1.50;99.90;;;;;;4902834;29;20250;-88
2023/04/04 02:56:38;;;;;;;8.67;3.07;;;-1.60;99.90;;;;;;4898591;29;20205;-89
2023/04/04 02:59:07;;;;;;;8.00;3.57;;;-1.60;99.90;;;;;;4898721;29;20236;-89
2023/04/04 03:01:34;;;;;;;9.43;3.17;;;-1.60;99.90;;;;;;4898775;29;20206;-89
2023/04/04 03:04:01;;;;;;;8.47;3.87;;;-1.70;99.90;;;;;;4898797;29;20318;-89
2023/04/04 03:06:32;;;;;;;10.33;3.83;;;-1.60;99.90;;;;;;4899471;29;20249;-89
2023/04/04 03:09:03;;;;;;;7.40;3.93;;;-1.70;99.90;;;;;;4898445;29;20201;-89
2023/04/04 03:11:30;;;;;;;8.13;4.13;;;-1.60;99.90;;;;;;4893542;29;20205;-88
2023/04/04 03:13:57;;;;;;;13.23;4.50;;;-1.60;99.90;;;;;;4899299;29;20214;-89
2023/04/04 03:16:24;;;;;;;8.73;4.60;;;-1.60;99.90;;;;;;4898942;29;20258;-89
2023/04/04 03:18:51;;;;;;;9.40;4.00;;;-1.60;99.90;;;;;;4898934;29;20205;-89
2023/04/04 03:21:18;;;;;;;8.73;3.57;;;-1.60;99.90;;;;;;4905098;29;20201;-89
2023/04/04 03:23:45;;;;;;;8.63;4.37;;;-1.60;99.90;;;;;;4913462;29;20193;-89
2023/04/04 03:26:14;;;;;;;6.60;4.00;;;-1.60;99.90;;;;;;4898429;29;20658;-88
2023/04/04 03:28:41;;;;;;;14.90;6.33;;;-1.60;99.90;;;;;;4879936;29;20203;-88
2023/04/04 03:31:08;;;;;;;14.23;5.67;;;-1.60;99.90;;;;;;4897476;29;20281;-89
2023/04/04 03:33:36;;;;;;;15.33;8.10;;;-1.70;99.90;;;;;;4898860;29;20201;-89
2023/04/04 03:36:04;;;;;;;24.53;11.83;;;-1.70;99.90;;;;;;4909253;29;20212;-89
2023/04/04 03:38:31;;;;;;;26.13;12.80;;;-1.70;99.90;;;;;;4911164;29;20621;-90
2023/04/04 03:41:05;;;;;;;33.30;15.73;;;-1.80;99.90;;;;;;4898226;29;20677;-89
2023/04/04 03:43:33;;;;;;;154.43;61.87;;;-1.80;99.90;;;;;;4901048;29;20651;-89
2023/04/04 03:46:01;;;;;;;80.77;36.10;;;-1.80;99.90;;;;;;4902057;29;20261;-89
2023/04/04 03:48:29;;;;;;;29.87;15.67;;;-1.80;99.90;;;;;;4915374;29;20229;-89
2023/04/04 03:50:57;;;;;;;14.20;6.40;;;-1.90;99.90;;;;;;4884819;29;20222;-89
2023/04/04 03:53:24;;;;;;;12.67;5.50;;;-1.90;99.90;;;;;;4902250;29;20297;-89
2023/04/04 03:55:52;;;;;;;10.77;6.80;;;-1.90;99.90;;;;;;4902031;29;20218;-89
2023/04/04 03:58:19;;;;;;;9.80;5.50;;;-1.90;99.90;;;;;;4902415;29;20284;-89
2023/04/04 04:00:47;;;;;;;7.03;4.60;;;-1.90;99.90;;;;;;4902065;29;20197;-89
2023/04/04 04:03:14;;;;;;;9.90;5.90;;;-1.90;99.90;;;;;;4902791;29;20274;-89
2023/04/04 04:05:41;;;;;;;13.50;7.03;;;-2.00;99.90;;;;;;4903568;29;20206;-89
2023/04/04 04:08:08;;;;;;;7.63;4.40;;;-2.00;99.90;;;;;;4902987;29;20194;-90
2023/04/04 04:10:36;;;;;;;9.67;4.90;;;-2.00;99.90;;;;;;4903062;29;20225;-90
2023/04/04 04:13:03;;;;;;;8.90;4.70;;;-2.00;99.90;;;;;;4903490;29;20206;-89
2023/04/04 04:15:30;;;;;;;7.00;4.53;;;-2.00;99.90;;;;;;4907241;29;20202;-90
2023/04/04 04:17:58;;;;;;;7.73;3.73;;;-2.00;99.90;;;;;;4903331;29;20566;-91
2023/04/04 04:20:25;;;;;;;6.73;3.93;;;-2.10;99.90;;;;;;4902555;29;20205;-90
2023/04/04 04:22:52;;;;;;;11.53;3.50;;;-2.10;99.90;;;;;;4903664;29;20782;-89
2023/04/04 04:25:19;;;;;;;14.30;6.07;;;-2.00;99.90;;;;;;4901414;29;20686;-89
2023/04/04 04:27:46;;;;;;;9.33;4.07;;;-2.00;99.90;;;;;;4901416;29;20686;-89
2023/04/04 04:30:13;;;;;;;13.17;8.20;;;-2.00;99.90;;;;;;4901444;29;20194;-90
2023/04/04 04:32:40;;;;;;;8.53;5.10;;;-2.00;99.90;;;;;;4889251;29;20277;-90
2023/04/04 04:35:09;;;;;;;7.20;3.23;;;-2.00;99.90;;;;;;4901699;29;20328;-89
2023/04/04 04:37:36;;;;;;;11.53;3.60;;;-2.10;99.90;;;;;;4901610;29;20284;-88
2023/04/04 04:40:04;;;;;;;8.80;3.17;;;-2.00;99.90;;;;;;4901019;29;20213;-89
2023/04/04 04:42:31;;;;;;;7.30;3.27;;;-2.00;99.90;;;;;;4900896;29;20623;-88
2023/04/04 04:44:57;;;;;;;7.07;3.20;;;-2.00;99.90;;;;;;4900613;29;20193;-91
2023/04/04 04:47:24;;;;;;;16.27;5.83;;;-2.00;99.90;;;;;;4901135;29;20198;-90
2023/04/04 04:49:51;;;;;;;7.40;3.30;;;-1.90;99.90;;;;;;4900739;29;20201;-91
2023/04/04 04:52:20;;;;;;;9.83;3.77;;;-1.90;1.00;;;;;;4900212;29;20217;-90
2023/04/04 04:54:47;;;;;;;11.00;3.67;;;-1.70;1.00;;;;;;4900582;29;20201;-91
2023/04/04 04:57:14;;;;;;;8.23;3.33;;;-1.60;1.00;;;;;;4901237;29;20202;-91
2023/04/04 04:59:41;;;;;;;8.97;4.07;;;-1.40;99.90;;;;;;4899436;29;20245;-90
2023/04/04 05:02:08;;;;;;;17.60;6.10;;;-1.20;99.90;;;;;;4900428;29;20735;-92
2023/04/04 05:04:35;;;;;;;18.50;6.60;;;-1.10;99.90;;;;;;4901266;29;20674;-91
2023/04/04 05:07:02;;;;;;;11.10;4.70;;;-0.90;99.90;;;;;;4900530;29;20238;-91
2023/04/04 05:09:30;;;;;;;14.30;5.67;;;-0.80;99.90;;;;;;4901033;29;20202;-92
2023/04/04 05:11:57;;;;;;;14.10;5.90;;;-0.60;99.90;;;;;;4901037;29;21091;-92
2023/04/04 05:14:24;;;;;;;10.70;5.27;;;-0.50;99.90;;;;;;4901501;29;20198;-93
2023/04/04 15:16:03;;;;;;;7.57;3.70;;;7.30;99.90;;;;;;5605550;23;20678;-92
2023/04/04 15:18:29;;;;;;;4.17;2.50;;;7.30;99.90;;;;;;4880507;29;20293;-92
2023/04/04 15:20:57;;;;;;;4.37;2.30;;;7.30;99.90;;;;;;4895103;29;20202;-93
2023/04/04 15:23:24;;;;;;;6.90;3.53;;;7.30;99.90;;;;;;4899514;29;20663;-92
2023/04/04 15:25:50;;;;;;;5.80;2.30;;;7.30;99.90;;;;;;4897086;29;20205;-93
2023/04/04 15:28:17;;;;;;;18.73;7.17;;;7.30;99.90;;;;;;4885054;29;20200;-92
2023/04/04 15:30:44;;;;;;;14.17;6.43;;;7.30;99.90;;;;;;4898777;29;20203;-94
2023/04/04 15:33:12;;;;;;;6.97;4.10;;;7.20;99.90;;;;;;4898574;29;20265;-92
2023/04/04 15:35:39;;;;;;;7.20;4.60;;;7.00;99.90;;;;;;4898232;29;20206;-92
2023/04/04 15:38:06;;;;;;;9.00;5.63;;;6.90;99.90;;;;;;4898686;29;20197;-93
2023/04/04 15:40:32;;;;;;;9.57;5.03;;;6.80;99.90;;;;;;4902702;29;20212;-93
2023/04/04 15:42:59;;;;;;;9.43;4.70;;;6.70;99.90;;;;;;4902882;29;20197;-95
2023/04/04 15:45:26;;;;;;;6.97;3.37;;;6.70;99.90;;;;;;4902795;29;20566;-94
2023/04/04 15:47:53;;;;;;;8.67;3.70;;;6.80;99.90;;;;;;4903180;29;20198;-93
2023/04/04 15:50:21;;;;;;;11.87;4.57;;;7.00;99.90;;;;;;4903060;29;20191;-93
2023/04/04 15:52:48;;;;;;;19.70;9.07;;;7.20;99.90;;;;;;4904514;29;20221;-94
2023/04/04 15:55:16;;;;;;;9.97;5.53;;;7.40;99.90;;;;;;4902987;29;20205;-93
2023/04/04 15:57:43;;;;;;;13.80;6.07;;;7.60;99.90;;;;;;4902824;29;20237;-94
2023/04/04 16:00:11;;;;;;;9.27;4.33;;;7.80;99.90;;;;;;4902759;29;20261;-92
2023/04/04 16:02:38;;;;;;;16.50;6.13;;;7.90;99.90;;;;;;4902436;29;20200;-94
2023/04/04 16:05:05;;;;;;;5.90;2.53;;;7.90;99.90;;;;;;4902720;29;20300;-93
2023/04/04 16:07:33;;;;;;;6.17;3.13;;;7.90;99.90;;;;;;4903185;29;20203;-94
2023/04/04 16:10:00;;;;;;;9.50;3.93;;;7.80;99.90;;;;;;4902485;29;20685;-93
2023/04/04 16:12:27;;;;;;;5.93;2.80;;;7.80;99.90;;;;;;4901507;29;20311;-92
2023/04/04 16:14:54;;;;;;;7.10;3.40;;;7.70;99.90;;;;;;4902009;29;20206;-91
2023/04/04 16:17:21;;;;;;;8.00;3.40;;;7.50;99.90;;;;;;4901303;29;20230;-93
2023/04/04 16:19:47;;;;;;;5.37;2.60;;;7.40;99.90;;;;;;4900207;29;20666;-92
2023/04/04 16:22:15;;;;;;;7.00;2.77;;;7.30;99.90;;;;;;4883656;29;20648;-93
2023/04/04 16:24:43;;;;;;;5.10;3.30;;;7.30;99.90;;;;;;4883590;29;20206;-91
2023/04/04 16:27:10;;;;;;;5.53;2.60;;;7.30;99.90;;;;;;4899438;29;20205;-92
2023/04/04 16:29:37;;;;;;;5.20;2.73;;;7.30;99.90;;;;;;4902176;29;20214;-91
2023/04/04 16:32:05;;;;;;;6.43;3.17;;;7.30;99.90;;;;;;4901866;29;20239;-92
2023/04/04 16:34:32;;;;;;;6.10;3.30;;;7.40;99.90;;;;;;4899925;29;20217;-92
2023/04/04 16:36:58;;;;;;;6.27;2.83;;;7.40;99.90;;;;;;4883364;29;20195;-92
2023/04/04 16:39:25;;;;;;;7.87;3.70;;;7.40;99.90;;;;;;4901267;29;20719;-93
2023/04/04 16:41:54;;;;;;;6.23;3.03;;;7.30;99.90;;;;;;4901448;29;20284;-93
2023/04/04 16:44:20;;;;;;;5.30;3.13;;;7.30;99.90;;;;;;4901298;29;20209;-92
2023/04/04 16:46:47;;;;;;;5.53;3.43;;;7.20;99.90;;;;;;4901465;29;20205;-91
2023/04/04 16:49:15;;;;;;;5.47;3.10;;;7.10;99.90;;;;;;4901447;29;20217;-92
2023/04/04 16:51:42;;;;;;;5.40;3.60;;;7.00;99.90;;;;;;4900243;29;20257;-92
2023/04/04 16:54:09;;;;;;;6.83;4.00;;;6.80;99.90;;;;;;4901200;29;20216;-91
2023/04/04 16:56:36;;;;;;;6.30;3.60;;;6.70;99.90;;;;;;4901321;29;20206;-91
2023/04/04 16:59:04;;;;;;;6.43;3.30;;;6.50;99.90;;;;;;4901838;29;20269;-91
2023/04/04 17:01:31;;;;;;;6.50;3.23;;;6.40;99.90;;;;;;4901552;29;20231;-92
2023/04/04 17:03:57;;;;;;;5.30;3.10;;;6.20;99.90;;;;;;4904127;29;20205;-91
2023/04/04 17:06:24;;;;;;;3.70;2.67;;;6.10;99.90;;;;;;4902829;29;20200;-92
2023/04/04 17:08:51;;;;;;;7.43;3.30;;;6.00;99.90;;;;;;4901363;29;20297;-92
2023/04/04 17:11:18;;;;;;;8.30;4.10;;;5.90;99.90;;;;;;4901006;29;20610;-92
2023/04/04 17:13:45;;;;;;;6.73;3.40;;;5.80;99.90;;;;;;4899881;29;20220;-93
2023/04/04 17:16:13;;;;;;;5.60;3.60;;;5.70;99.90;;;;;;4882280;29;20264;-92
2023/04/04 17:18:40;;;;;;;9.27;4.20;;;5.60;99.90;;;;;;4882665;29;20203;-91
2023/04/04 17:21:07;;;;;;;5.87;3.70;;;5.50;99.90;;;;;;4898463;29;20584;-93
2023/04/04 17:23:33;;;;;;;7.00;3.70;;;5.40;99.90;;;;;;4901452;29;20660;-93
2023/04/04 17:26:01;;;;;;;6.20;3.30;;;5.40;99.90;;;;;;4901055;29;20198;-95
2023/04/04 17:28:27;;;;;;;4.07;2.57;;;5.30;99.90;;;;;;4900837;29;20207;-93
2023/04/04 17:30:55;;;;;;;7.03;2.60;;;5.30;99.90;;;;;;4901155;29;20235;-93
2023/04/04 17:33:25;;;;;;;6.90;3.10;;;5.30;99.90;;;;;;4900656;29;20223;-94
2023/04/04 17:35:52;;;;;;;7.47;3.57;;;5.30;99.90;;;;;;4901067;29;20198;-91
2023/04/04 17:38:19;;;;;;;4.53;3.00;;;5.30;99.90;;;;;;4900646;29;20204;-94
2023/04/04 17:40:47;;;;;;;4.80;2.73;;;5.20;99.90;;;;;;4900769;29;20221;-95
2023/04/04 17:43:14;;;;;;;5.50;3.40;;;5.20;99.90;;;;;;4901280;29;20209;-95
2023/04/04 17:45:42;;;;;;;7.23;4.30;;;5.20;99.90;;;;;;4901111;29;20706;-95
2023/04/04 17:48:09;;;;;;;7.50;4.40;;;5.30;99.90;;;;;;4901046;29;20190;-93
2023/04/04 17:50:37;;;;;;;5.83;4.10;;;5.20;99.90;;;;;;4900687;29;20228;-93
2023/04/04 17:53:06;;;;;;;9.73;5.60;;;5.20;99.90;;;;;;4900637;29;20223;-95
2023/04/04 17:55:33;;;;;;;6.30;3.97;;;5.20;99.90;;;;;;4882075;29;20712;-93
2023/04/04 17:58:00;;;;;;;6.70;3.17;;;5.20;99.90;;;;;;4881630;29;20200;-90
2023/04/04 18:00:27;;;;;;;4.53;2.70;;;5.20;99.90;;;;;;4899594;29;20210;-91
2023/04/04 18:02:53;;;;;;;3.80;2.20;;;5.20;99.90;;;;;;4893655;29;20279;-91
2023/04/04 18:05:20;;;;;;;5.60;2.70;;;5.10;99.90;;;;;;4890959;29;20211;-92
2023/04/04 18:07:49;;;;;;;6.77;3.43;;;5.10;99.90;;;;;;4899747;29;20286;-91
2023/04/04 18:10:16;;;;;;;5.17;2.70;;;5.10;99.90;;;;;;4899827;29;20544;-92
2023/04/04 18:12:45;;;;;;;5.93;3.00;;;4.90;99.90;;;;;;4895556;29;20698;-91
2023/04/04 18:15:12;;;;;;;5.17;2.53;;;4.80;99.90;;;;;;4888507;29;20215;-92
2023/04/04 18:17:40;;;;;;;7.43;3.60;;;4.70;99.90;;;;;;4892096;29;20194;-93
2023/04/04 18:20:08;;;;;;;5.33;2.60;;;4.60;99.90;;;;;;4901206;29;20198;-96
2023/04/04 18:22:35;;;;;;;6.93;2.50;;;4.50;99.90;;;;;;4901155;29;20285;-96
2023/04/04 18:25:03;;;;;;;4.93;2.53;;;4.50;99.90;;;;;;4901340;29;20549;-96
2023/04/04 18:27:30;;;;;;;5.13;3.03;;;4.40;99.90;;;;;;4892402;29;20202;-96
2023/04/04 18:29:56;;;;;;;4.67;3.20;;;4.40;99.90;;;;;;4900542;29;20208;-96
2023/04/04 18:32:25;;;;;;;8.60;3.37;;;4.40;99.90;;;;;;4892163;29;20222;-95
2023/04/04 18:34:52;;;;;;;6.47;2.90;;;4.40;99.90;;;;;;4886599;29;20659;-95
2023/04/04 18:37:18;;;;;;;6.30;2.80;;;4.40;99.90;;;;;;4899672;29;20544;-96
2023/04/04 18:39:45;;;;;;;10.73;3.00;;;4.30;99.90;;;;;;4881376;29;20206;-95
2023/04/04 18:42:14;;;;;;;4.33;2.33;;;4.20;99.90;;;;;;4897148;29;20283;-95
2023/04/04 18:44:41;;;;;;;3.77;2.07;;;4.10;99.90;;;;;;4899954;29;20579;-96
2023/04/04 18:47:08;;;;;;;7.53;2.87;;;4.10;99.90;;;;;;4900024;29;20212;-95
2023/04/04 18:49:35;;;;;;;8.93;3.77;;;4.00;99.90;;;;;;4899850;29;20202;-95
2023/04/04 18:52:01;;;;;;;3.77;2.63;;;4.00;99.90;;;;;;4880894;29;20609;-94
2023/04/04 18:54:29;;;;;;;4.30;2.60;;;3.90;99.90;;;;;;4891115;29;20590;-95
2023/04/04 18:56:56;;;;;;;4.33;2.40;;;3.90;99.90;;;;;;4899533;29;20688;-94
2023/04/04 18:59:24;;;;;;;5.27;3.23;;;3.80;99.90;;;;;;4899868;29;20210;-94
2023/04/04 19:01:52;;;;;;;6.97;3.13;;;3.70;99.90;;;;;;4899133;29;20198;-95
2023/04/04 19:04:20;;;;;;;5.80;2.77;;;3.60;99.90;;;;;;4884107;29;20196;-94
2023/04/04 19:06:49;;;;;;;6.53;2.70;;;3.50;99.90;;;;;;4880831;29;20202;-94
2023/04/04 19:09:18;;;;;;;7.87;2.80;;;3.40;99.90;;;;;;4897273;29;20198;-93
2023/04/04 19:11:45;;;;;;;6.50;3.20;;;3.40;99.90;;;;;;4898982;29;20201;-95
2023/04/04 19:14:12;;;;;;;5.30;2.27;;;3.40;99.90;;;;;;4899054;29;20599;-94
2023/04/04 19:16:41;;;;;;;3.47;2.00;;;3.30;99.90;;;;;;4899088;29;20236;-94
2023/04/04 19:19:08;;;;;;;12.90;6.23;;;3.30;99.90;;;;;;4881136;29;20227;-94
2023/04/04 19:21:34;;;;;;;6.00;3.13;;;3.30;99.90;;;;;;4893890;29;20205;-94
2023/04/04 19:24:01;;;;;;;6.30;2.70;;;3.30;99.90;;;;;;4899542;29;20202;-94
2023/04/04 19:26:28;;;;;;;3.40;2.60;;;3.20;99.90;;;;;;4900178;29;20233;-94
2023/04/04 19:28:55;;;;;;;4.07;2.40;;;3.20;99.90;;;;;;4899545;29;20213;-94
2023/04/04 19:31:23;;;;;;;5.67;2.40;;;3.30;99.90;;;;;;4899094;29;20198;-94
2023/04/04 19:33:54;;;;;;;10.27;3.67;;;3.30;99.90;;;;;;4899059;29;20314;-93
2023/04/04 19:36:21;;;;;;;3.23;2.10;;;3.30;99.90;;;;;;4898881;29;20206;-93
2023/04/04 19:38:48;;;;;;;8.13;2.80;;;3.30;99.90;;;;;;4899192;29;20205;-93
2023/04/04 19:41:32;;;;;;;11.13;4.53;;;3.30;99.90;;;;;;4899381;29;20202;-93
2023/04/04 19:43:59;;;;;;;6.40;3.63;;;3.30;99.90;;;;;;4899269;29;20198;-93
2023/04/04 19:46:28;;;;;;;13.57;5.90;;;3.30;99.90;;;;;;4899255;29;20232;-91
2023/04/04 19:48:56;;;;;;;46.60;25.37;;;3.30;99.90;;;;;;4898617;29;20201;-93
2023/04/04 19:51:48;;;;;;;55.87;26.73;;;3.30;99.90;;;;;;4899002;29;20198;-92
2023/04/04 19:54:15;;;;;;;28.00;14.67;;;3.20;99.90;;;;;;4871389;29;20226;-94
2023/04/04 19:56:45;;;;;;;22.23;11.43;;;3.20;99.90;;;;;;4892705;29;20281;-93
2023/04/04 19:59:51;;;;;;;7.83;4.90;;;3.20;99.90;;;;;;4898789;29;20204;-94
2023/04/04 20:02:53;;;;;;;5.17;3.20;;;3.20;99.90;;;;;;4899008;29;20555;-94
2023/04/04 20:05:57;;;;;;;5.33;2.80;;;3.20;99.90;;;;;;4889209;29;20544;-93
2023/04/04 20:08:24;;;;;;;7.50;3.13;;;3.20;99.90;;;;;;4899248;29;20185;-94
2023/04/04 20:10:55;;;;;;;5.07;2.80;;;3.20;99.90;;;;;;4899216;29;20201;-94
2023/04/04 20:13:22;;;;;;;6.43;2.43;;;3.20;99.90;;;;;;4899107;29;20222;-94
2023/04/04 20:16:02;;;;;;;5.50;2.50;;;3.20;99.90;;;;;;4899227;29;20234;-94
2023/04/04 20:18:31;;;;;;;6.70;3.13;;;3.20;99.90;;;;;;4898698;29;20665;-95
2023/04/04 20:21:11;;;;;;;5.70;2.90;;;3.10;99.90;;;;;;4898807;29;20202;-93
2023/04/04 20:23:51;;;;;;;7.77;3.33;;;3.10;99.90;;;;;;4896384;29;20187;-93
2023/04/04 20:26:41;;;;;;;7.30;4.73;;;3.10;99.90;;;;;;4901897;29;20189;-95
2023/04/04 20:29:09;;;;;;;9.87;8.77;;;3.10;99.90;;;;;;4902166;29;20265;-95
2023/04/04 20:31:40;;;;;;;8.03;3.77;;;3.20;99.90;;;;;;4902457;29;20236;-95
2023/04/04 20:34:21;;;;;;;7.77;3.40;;;3.20;99.90;;;;;;4902460;29;20250;-95
2023/04/04 20:36:49;;;;;;;4.87;3.30;;;3.30;99.90;;;;;;4902342;29;20213;-95
2023/04/04 20:39:34;;;;;;;7.57;3.90;;;3.30;99.90;;;;;;4902017;29;20209;-94
2023/04/04 20:42:01;;;;;;;9.40;4.00;;;3.30;99.90;;;;;;4902218;29;20188;-95
2023/04/04 20:44:28;;;;;;;7.53;4.40;;;3.30;99.90;;;;;;4902172;29;20207;-94
2023/04/04 20:46:56;;;;;;;7.13;4.40;;;3.20;99.90;;;;;;4902250;29;20208;-94
2023/04/04 20:49:23;;;;;;;7.77;4.20;;;3.30;99.90;;;;;;4901986;29;20209;-94
2023/04/04 20:51:51;;;;;;;7.00;5.40;;;3.30;99.90;;;;;;4901729;29;20211;-93
2023/04/04 20:54:18;;;;;;;7.90;5.90;;;3.30;99.90;;;;;;4902078;29;20222;-93
2023/04/04 20:56:51;;;;;;;10.00;7.97;;;3.30;99.90;;;;;;4902179;29;20206;-94
2023/04/04 20:59:36;;;;;;;9.00;7.50;;;3.30;99.90;;;;;;4902109;29;20193;-93
2023/04/04 21:02:15;;;;;;;9.00;6.00;;;3.30;99.90;;;;;;4901633;29;20202;-93
2023/04/04 21:04:44;;;;;;;11.50;6.97;;;3.20;99.90;;;;;;4901962;29;20202;-94
2023/04/04 21:07:38;;;;;;;11.50;7.40;;;3.30;99.90;;;;;;4901849;29;20206;-94
2023/04/04 21:10:24;;;;;;;11.67;6.97;;;3.20;99.90;;;;;;4901649;29;20693;-94
2023/04/04 21:12:51;;;;;;;11.20;4.80;;;3.10;99.90;;;;;;4899767;29;20190;-93
2023/04/04 21:15:22;;;;;;;7.50;4.53;;;3.10;99.90;;;;;;4901137;29;20577;-94
2023/04/04 21:17:49;;;;;;;7.47;4.67;;;3.10;99.90;;;;;;4901771;29;20182;-93
2023/04/04 21:20:36;;;;;;;8.63;5.37;;;3.10;99.90;;;;;;4885681;29;20206;-93
2023/04/04 21:23:06;;;;;;;9.00;5.07;;;3.10;1.00;;;;;;4882535;29;20204;-93
2023/04/04 21:25:44;;;;;;;7.47;4.30;;;3.10;1.00;;;;;;4898986;29;20205;-94
2023/04/04 21:28:11;;;;;;;8.13;4.27;;;3.10;1.00;;;;;;4901369;29;20541;-94
2023/04/04 21:30:43;;;;;;;6.87;3.47;;;3.10;1.00;;;;;;4900800;29;20206;-93
2023/04/04 21:33:16;;;;;;;6.10;3.37;;;3.10;1.00;;;;;;4900767;29;20200;-93
2023/04/04 21:35:46;;;;;;;8.10;3.50;;;3.10;1.00;;;;;;4900771;29;20209;-93
2023/04/04 21:38:28;;;;;;;5.47;3.37;;;3.10;1.00;;;;;;4901309;29;20229;-93
2023/04/04 21:40:55;;;;;;;7.67;3.73;;;3.10;1.00;;;;;;4901011;29;20192;-94
2023/04/04 21:43:21;;;;;;;9.60;4.90;;;3.20;1.00;;;;;;4900917;29;20192;-94
2023/04/04 21:45:48;;;;;;;8.13;4.80;;;3.20;1.00;;;;;;4887911;29;20214;-94
2023/04/04 21:48:15;;;;;;;9.80;4.90;;;3.20;1.00;;;;;;4900526;29;20577;-94
2023/04/04 21:50:42;;;;;;;7.73;4.17;;;3.20;1.00;;;;;;4892781;29;20224;-93
2023/04/04 21:53:08;;;;;;;11.53;4.40;;;3.20;1.00;;;;;;4895505;29;20655;-93
2023/04/04 21:55:36;;;;;;;8.63;4.40;;;3.30;1.00;;;;;;4900718;29;20209;-94
2023/04/04 21:58:03;;;;;;;8.30;4.50;;;3.20;1.00;;;;;;4900923;29;20568;-93
2023/04/04 22:00:30;;;;;;;9.37;4.80;;;3.20;1.00;;;;;;4900360;29;20670;-92
2023/04/04 22:02:57;;;;;;;8.53;4.37;;;3.20;1.00;;;;;;4900996;29;20201;-94
2023/04/04 22:05:24;;;;;;;7.80;4.40;;;3.20;1.00;;;;;;4900291;29;20217;-94
2023/04/04 22:07:50;;;;;;;12.50;5.10;;;3.20;1.00;;;;;;4900585;29;20211;-93
2023/04/04 22:10:17;;;;;;;10.90;5.07;;;3.20;1.00;;;;;;4900345;29;20227;-94
2023/04/04 22:12:48;;;;;;;9.90;4.87;;;3.20;1.00;;;;;;4900680;29;20213;-96
2023/04/04 22:15:16;;;;;;;14.03;6.47;;;3.30;1.00;;;;;;4900372;29;20255;-93
2023/04/04 22:17:50;;;;;;;9.97;5.10;;;3.30;1.00;;;;;;4900599;29;20208;-93
2023/04/04 22:20:17;;;;;;;10.57;5.37;;;3.30;1.00;;;;;;4900125;29;20664;-92
2023/04/04 22:22:44;;;;;;;10.67;5.27;;;3.30;1.00;;;;;;4900137;29;20233;-94
2023/04/04 22:25:11;;;;;;;10.57;5.80;;;3.30;1.00;;;;;;4900535;29;20230;-94
2023/04/04 22:27:38;;;;;;;11.13;6.20;;;3.30;1.00;;;;;;4900150;29;20198;-94
2023/04/04 22:30:08;;;;;;;12.17;5.63;;;3.40;1.00;;;;;;4900318;29;20201;-94
2023/04/04 22:32:36;;;;;;;10.07;4.83;;;3.40;1.00;;;;;;4900407;29;20216;-92
2023/04/04 22:35:05;;;;;;;8.93;4.70;;;3.40;1.00;;;;;;4899955;29;20218;-95
2023/04/04 22:37:32;;;;;;;8.97;4.23;;;3.50;1.00;;;;;;4898600;29;20202;-93
2023/04/04 22:39:58;;;;;;;8.33;4.27;;;3.50;1.00;;;;;;4898848;29;20207;-93
2023/04/04 22:42:25;;;;;;;7.47;4.20;;;3.50;1.00;;;;;;4899686;29;20205;-94
2023/04/04 22:44:52;;;;;;;6.50;4.10;;;3.50;1.00;;;;;;4899846;29;20200;-94
2023/04/04 22:47:21;;;;;;;8.53;4.57;;;3.50;1.00;;;;;;4900032;29;20197;-94
2023/04/04 22:49:48;;;;;;;9.33;4.87;;;3.50;1.00;;;;;;4899513;29;20252;-94
2023/04/04 22:52:15;;;;;;;12.60;5.50;;;3.50;1.00;;;;;;4900030;29;20193;-94
2023/04/04 22:54:42;;;;;;;14.23;5.30;;;3.50;1.00;;;;;;4899787;29;20250;-93
2023/04/04 22:57:10;;;;;;;8.83;4.13;;;3.50;1.00;;;;;;4899688;29;20211;-94
2023/04/04 22:59:36;;;;;;;8.90;3.93;;;3.50;1.00;;;;;;4899427;29;20212;-92